createdAt,value
2023-02-12T00:03:47.852Z,10.43
2023-02-12T00:07:51.214Z,9.27
2023-02-12T00:11:55.894Z,9.27
2023-02-12T00:15:59.389Z,8.07
2023-02-12T00:20:11.228Z,9.17
2023-02-12T00:24:14.456Z,8.37
2023-02-12T00:28:19.254Z,8.60
2023-02-12T00:32:23.550Z,8.37
2023-02-12T00:36:31.211Z,8.43
2023-02-12T00:40:34.410Z,10.07
2023-02-12T00:44:39.172Z,9.67
2023-02-12T00:48:42.509Z,9.17
2023-02-12T00:52:45.867Z,9.37
2023-02-12T00:56:49.030Z,9.17
2023-02-12T01:00:54.491Z,9.30
2023-02-12T01:04:58.691Z,9.57
2023-02-12T01:09:02.759Z,8.80
2023-02-12T01:13:05.917Z,9.37
2023-02-12T01:17:12.588Z,11.07
2023-02-12T01:21:19.194Z,10.03
2023-02-12T01:25:22.643Z,10.13
2023-02-12T01:29:25.940Z,8.57
2023-02-12T01:33:32.691Z,9.50
2023-02-12T01:37:37.259Z,8.83
2023-02-12T01:41:45.239Z,8.90
2023-02-12T01:45:54.659Z,9.10
2023-02-12T01:49:59.626Z,9.97
2023-02-12T01:54:07.822Z,8.40
2023-02-12T01:58:11.632Z,10.70
2023-02-12T02:02:15.516Z,11.10
2023-02-12T02:06:23.892Z,9.33
2023-02-12T02:10:27.458Z,11.20
2023-02-12T02:14:34.015Z,10.83
2023-02-12T02:18:43.856Z,8.87
2023-02-12T02:22:54.018Z,7.13
2023-02-12T02:27:21.991Z,9.70
2023-02-12T02:31:32.044Z,9.27
2023-02-12T02:35:42.797Z,8.30
2023-02-12T02:39:54.742Z,8.33
2023-02-12T02:43:58.028Z,8.70
2023-02-12T02:48:08.270Z,7.30
2023-02-12T02:52:17.660Z,8.57
2023-02-12T02:56:24.322Z,6.57
2023-02-12T03:00:36.928Z,5.50
2023-02-12T03:04:46.298Z,6.13
2023-02-12T03:08:55.702Z,8.20
2023-02-12T03:13:04.678Z,7.17
2023-02-12T03:17:14.598Z,7.63
2023-02-12T03:21:31.835Z,6.70
2023-02-12T03:25:38.384Z,6.37
2023-02-12T03:29:41.800Z,6.70
2023-02-12T03:34:02.394Z,6.30
2023-02-12T03:38:12.836Z,7.80
2023-02-12T03:42:23.750Z,6.73
2023-02-12T03:46:32.873Z,6.70
2023-02-12T03:50:45.646Z,7.27
2023-02-12T03:54:50.266Z,6.73
2023-02-12T03:58:53.643Z,6.40
2023-02-12T04:02:57.011Z,6.87
2023-02-12T04:07:01.167Z,7.20
2023-02-12T04:11:15.875Z,5.30
2023-02-12T04:15:35.315Z,6.50
2023-02-12T04:19:50.148Z,6.30
2023-02-12T04:24:06.774Z,7.57
2023-02-12T04:28:19.829Z,6.77
2023-02-12T04:32:33.662Z,6.57
2023-02-12T04:36:43.797Z,6.10
2023-02-12T04:40:47.724Z,6.70
2023-02-12T04:44:52.847Z,6.33
2023-02-12T04:48:59.163Z,6.07
2023-02-12T04:53:02.372Z,8.13
2023-02-12T04:57:12.929Z,6.30
2023-02-12T05:01:17.681Z,9.00
2023-02-12T05:05:23.239Z,8.37
2023-02-12T05:09:26.505Z,8.10
2023-02-12T05:13:29.877Z,7.50
2023-02-12T05:17:34.642Z,8.20
2023-02-12T05:21:38.328Z,7.50
2023-02-12T05:25:41.500Z,8.53
2023-02-12T05:29:44.778Z,10.07
2023-02-12T05:33:50.976Z,8.27
2023-02-12T05:37:54.245Z,8.50
2023-02-12T05:41:57.575Z,7.77
2023-02-12T05:46:01.487Z,7.33
2023-02-12T05:50:07.225Z,6.83
2023-02-12T05:54:11.745Z,6.67
2023-02-12T05:58:16.118Z,7.90
2023-02-12T06:02:19.572Z,8.83
2023-02-12T06:06:27.133Z,6.27
2023-02-12T06:10:30.846Z,7.93
2023-02-12T06:14:34.171Z,7.90
2023-02-12T06:18:37.952Z,7.60
2023-02-12T06:22:42.558Z,7.93
2023-02-12T06:26:45.928Z,7.20
2023-02-12T06:30:49.168Z,6.43
2023-02-12T06:34:52.535Z,6.80
2023-02-12T06:38:57.257Z,7.37
2023-02-12T06:43:00.495Z,7.17
2023-02-12T06:47:03.809Z,7.47
2023-02-12T06:51:09.470Z,7.43
2023-02-12T06:55:14.060Z,7.83
2023-02-12T06:59:18.221Z,11.20
2023-02-12T07:03:21.418Z,10.67
2023-02-12T07:07:24.918Z,10.20
2023-02-12T07:11:31.863Z,9.53
2023-02-12T07:15:35.040Z,8.90
2023-02-12T07:19:39.473Z,8.57
2023-02-12T07:23:43.473Z,8.53
2023-02-12T07:27:48.040Z,9.20
2023-02-12T07:31:51.402Z,8.40
2023-02-12T07:35:55.112Z,10.90
2023-02-12T07:39:58.479Z,10.43
2023-02-12T07:44:06.902Z,11.10
2023-02-12T07:48:10.459Z,12.67
2023-02-12T07:52:13.886Z,10.40
2023-02-12T07:56:19.971Z,10.30
2023-02-12T08:00:25.068Z,9.67
2023-02-12T08:04:28.663Z,10.00
2023-02-12T08:08:32.260Z,10.10
2023-02-12T08:12:37.191Z,7.90
2023-02-12T08:16:43.964Z,7.53
2023-02-12T08:20:47.272Z,10.00
2023-02-12T08:24:50.564Z,11.17
2023-02-12T08:28:56.530Z,13.40
2023-02-12T08:33:01.157Z,14.80
2023-02-12T08:37:07.476Z,12.40
2023-02-12T08:41:12.952Z,14.33
2023-02-12T08:45:16.441Z,10.67
2023-02-12T08:49:23.038Z,14.80
2023-02-12T08:53:26.709Z,9.17
2023-02-12T08:57:30.195Z,10.03
2023-02-12T09:01:38.599Z,6.90
2023-02-12T09:05:43.669Z,6.10
2023-02-12T09:09:47.274Z,8.37
2023-02-12T09:13:50.507Z,6.80
2023-02-12T09:17:54.435Z,6.30
2023-02-12T09:21:59.243Z,5.57
2023-02-12T09:26:05.884Z,6.10
2023-02-12T09:30:10.401Z,7.57
2023-02-12T09:34:13.748Z,12.30
2023-02-12T09:38:18.431Z,7.57
2023-02-12T09:42:48.985Z,6.20
2023-02-12T09:46:56.752Z,6.30
2023-02-12T09:51:04.002Z,7.80
2023-02-12T09:55:15.536Z,7.10
2023-02-12T09:59:31.458Z,5.57
2023-02-12T10:03:34.856Z,6.50
2023-02-12T10:07:54.773Z,6.63
2023-02-12T10:12:09.304Z,7.40
2023-02-12T10:16:21.234Z,6.83
2023-02-12T10:21:02.803Z,7.20
2023-02-12T10:25:18.932Z,5.57
2023-02-12T10:29:26.616Z,4.43
2023-02-12T10:33:49.276Z,5.00
2023-02-12T10:37:58.865Z,3.80
2023-02-12T10:42:08.177Z,3.10
2023-02-12T10:46:17.415Z,4.30
2023-02-12T10:50:27.267Z,4.20
2023-02-12T10:54:36.804Z,3.87
2023-02-12T10:59:02.812Z,3.40
2023-02-12T11:03:22.417Z,2.30
2023-02-12T11:07:27.344Z,2.20
